Time;durP1;ratioP1;P1;durP2;ratioP2;P2;SDS_P1;SDS_P2;PMS_P1;PMS_P2;Temp;Humidity;BMP_temperature;BMP_pressure;BME280_temperature;BME280_humidity;BME280_pressure;Samples;Min_cycle;Max_cycle;Signal;HPM_P1;HPM_P2
2023/09/06 00:01:22;;;;;;;6.43;4.07;;;17.50;95.80;;;;;;5035235;28;20495;-79
2023/09/06 00:03:48;;;;;;;7.80;3.78;;;17.60;95.90;;;;;;5039728;28;21983;-80
2023/09/06 00:06:13;;;;;;;7.72;4.30;;;17.50;95.90;;;;;;5042211;28;20080;-78
2023/09/06 00:08:39;;;;;;;8.80;4.28;;;17.50;95.90;;;;;;5038127;28;20045;-78
2023/09/06 00:11:06;;;;;;;6.95;4.28;;;17.40;96.00;;;;;;5040657;28;20037;-80
2023/09/06 00:13:33;;;;;;;7.13;4.45;;;17.40;95.90;;;;;;5055043;28;20052;-80
2023/09/06 00:16:01;;;;;;;8.80;4.40;;;17.40;96.20;;;;;;5036397;28;20057;-79
2023/09/06 00:18:29;;;;;;;8.13;4.28;;;17.40;96.50;;;;;;5054139;28;20040;-78
2023/09/06 00:20:57;;;;;;;6.60;3.85;;;17.30;96.70;;;;;;5036926;28;20021;-77
2023/09/06 00:23:24;;;;;;;6.40;3.83;;;17.30;96.90;;;;;;5039746;28;20021;-79
2023/09/06 00:25:52;;;;;;;8.43;4.03;;;17.20;96.90;;;;;;5038217;28;20049;-78
2023/09/06 00:28:23;;;;;;;6.47;4.03;;;17.20;97.00;;;;;;5036553;28;20079;-78
2023/09/06 00:30:49;;;;;;;7.88;3.85;;;17.20;97.00;;;;;;5033213;28;20030;-79
2023/09/06 00:33:15;;;;;;;6.05;3.75;;;17.20;97.00;;;;;;5036358;28;20056;-79
2023/09/06 00:35:42;;;;;;;7.80;4.55;;;17.20;97.30;;;;;;5036465;28;20036;-79
2023/09/06 00:38:08;;;;;;;6.95;4.07;;;17.20;97.50;;;;;;5037006;28;20404;-79
2023/09/06 00:40:37;;;;;;;7.97;4.32;;;17.20;97.60;;;;;;5051116;28;20022;-80
2023/09/06 00:43:07;;;;;;;6.47;3.80;;;17.20;97.60;;;;;;5051233;28;20029;-80
2023/09/06 00:45:47;;;;;;;9.15;4.57;;;17.20;98.10;;;;;;5038020;28;20022;-79
2023/09/06 00:48:21;;;;;;;7.15;4.28;;;17.10;97.80;;;;;;5037062;28;20048;-80
2023/09/06 00:50:53;;;;;;;6.82;4.63;;;17.10;97.90;;;;;;5053655;28;20021;-79
2023/09/06 00:53:20;;;;;;;9.68;4.75;;;17.10;97.90;;;;;;5034413;28;20091;-78
2023/09/06 00:55:48;;;;;;;6.68;3.90;;;17.00;98.10;;;;;;5037085;28;20056;-78
2023/09/06 00:58:15;;;;;;;6.15;4.22;;;17.00;98.20;;;;;;5039945;28;20095;-77
2023/09/06 01:00:45;;;;;;;6.35;4.50;;;16.90;98.20;;;;;;5054382;28;20072;-79
2023/09/06 01:03:12;;;;;;;6.95;4.07;;;16.90;98.40;;;;;;5040309;28;20022;-78
2023/09/06 01:06:01;;;;;;;7.53;4.85;;;16.80;98.60;;;;;;5033877;28;20028;-77
2023/09/06 01:08:31;;;;;;;8.20;4.68;;;16.80;98.60;;;;;;5036660;28;20025;-80
2023/09/06 01:11:21;;;;;;;7.43;5.18;;;16.70;98.70;;;;;;5033830;28;20040;-78
2023/09/06 01:14:01;;;;;;;7.47;4.32;;;16.80;98.70;;;;;;5034659;28;20029;-77
2023/09/06 01:16:33;;;;;;;6.38;4.38;;;16.70;98.70;;;;;;5034988;28;20036;-78
2023/09/06 01:19:15;;;;;;;7.45;4.13;;;16.80;98.90;;;;;;5037856;28;20033;-77
2023/09/06 01:21:44;;;;;;;7.22;3.92;;;16.70;98.70;;;;;;5036700;28;20056;-80
2023/09/06 01:24:11;;;;;;;10.02;4.40;;;16.70;98.50;;;;;;5048227;28;20055;-81
2023/09/06 01:26:37;;;;;;;11.65;4.93;;;16.70;98.60;;;;;;5031409;28;21254;-77
2023/09/06 01:29:03;;;;;;;9.95;4.57;;;16.60;98.80;;;;;;5044263;28;20029;-78
2023/09/06 01:31:29;;;;;;;6.28;4.43;;;16.60;99.10;;;;;;5041117;28;20075;-78
2023/09/06 01:33:55;;;;;;;6.22;3.95;;;16.50;99.40;;;;;;5034140;28;20029;-78
2023/09/06 01:36:20;;;;;;;6.30;4.55;;;16.50;99.70;;;;;;5038753;28;20032;-77
2023/09/06 01:38:46;;;;;;;10.75;4.88;;;16.40;99.90;;;;;;5039742;28;20121;-77
2023/09/06 01:41:12;;;;;;;8.88;5.10;;;16.40;99.90;;;;;;5034371;28;20075;-77
2023/09/06 01:43:38;;;;;;;10.20;4.32;;;16.40;99.90;;;;;;5031688;28;20020;-77
2023/09/06 01:46:03;;;;;;;7.22;4.10;;;16.40;99.90;;;;;;5029878;28;20017;-77
2023/09/06 01:48:29;;;;;;;6.00;4.20;;;16.30;99.90;;;;;;5041188;28;20033;-77
2023/09/06 01:50:55;;;;;;;7.80;4.90;;;16.30;99.90;;;;;;5054324;28;20025;-78
2023/09/06 01:53:22;;;;;;;7.28;4.80;;;16.30;99.90;;;;;;5035362;28;20036;-76
2023/09/06 01:55:48;;;;;;;8.00;5.25;;;16.20;99.90;;;;;;5026798;28;20484;-77
2023/09/06 01:58:14;;;;;;;6.30;4.40;;;16.10;99.90;;;;;;5038266;28;20037;-77
2023/09/06 02:00:39;;;;;;;5.63;4.32;;;16.10;99.90;;;;;;5038166;28;20021;-77
2023/09/06 02:03:07;;;;;;;8.00;4.43;;;16.10;99.90;;;;;;5035531;28;20049;-76
2023/09/06 02:05:33;;;;;;;7.57;4.05;;;16.10;99.90;;;;;;5037089;28;20021;-76
2023/09/06 02:07:59;;;;;;;7.40;4.70;;;16.00;99.90;;;;;;5043051;28;20029;-76
2023/09/06 02:10:25;;;;;;;7.82;4.75;;;16.00;99.90;;;;;;5034644;28;20029;-77
2023/09/06 02:12:51;;;;;;;7.07;4.22;;;16.00;99.90;;;;;;5026928;28;20156;-77
2023/09/06 02:15:17;;;;;;;8.80;4.47;;;15.90;99.90;;;;;;5039015;28;20594;-76
2023/09/06 02:17:44;;;;;;;7.15;4.35;;;15.80;99.90;;;;;;5029757;28;20032;-75
2023/09/06 02:20:17;;;;;;;11.35;5.07;;;15.70;99.90;;;;;;5031290;28;20036;-76
2023/09/06 02:22:56;;;;;;;7.72;4.93;;;15.70;99.90;;;;;;5029514;28;20032;-76
2023/09/06 02:25:30;;;;;;;8.70;5.10;;;15.60;99.90;;;;;;5031440;28;20033;-75
2023/09/06 02:27:56;;;;;;;5.85;4.10;;;15.60;99.90;;;;;;5034813;28;20029;-75
2023/09/06 02:30:22;;;;;;;8.43;5.18;;;15.50;99.90;;;;;;5030954;28;20033;-75
2023/09/06 02:32:49;;;;;;;9.80;4.90;;;15.50;99.90;;;;;;5033030;28;20537;-75
2023/09/06 02:35:15;;;;;;;7.63;4.38;;;15.50;99.90;;;;;;5028015;28;20065;-75
2023/09/06 02:37:40;;;;;;;8.52;4.40;;;15.50;99.90;;;;;;5031926;28;20017;-75
2023/09/06 02:40:13;;;;;;;7.20;4.32;;;15.50;99.90;;;;;;5031707;28;20029;-75
2023/09/06 02:42:44;;;;;;;8.57;5.25;;;15.50;99.90;;;;;;5028179;28;20013;-75
2023/09/06 02:45:13;;;;;;;9.45;5.00;;;15.50;99.90;;;;;;5029161;28;20080;-75
2023/09/06 02:47:50;;;;;;;7.38;4.10;;;15.60;99.90;;;;;;5033694;28;20032;-75
2023/09/06 02:50:18;;;;;;;6.15;4.18;;;15.60;99.90;;;;;;5027620;28;20064;-75
2023/09/06 02:52:47;;;;;;;8.77;4.50;;;15.60;99.90;;;;;;5027021;28;20052;-76
2023/09/06 02:55:14;;;;;;;8.50;4.68;;;15.50;99.90;;;;;;5025335;28;20022;-75
2023/09/06 02:57:43;;;;;;;8.25;5.07;;;15.50;99.90;;;;;;5028826;28;20459;-75
2023/09/06 03:00:26;;;;;;;6.32;4.38;;;15.50;99.90;;;;;;5024641;28;20040;-75
2023/09/06 03:03:04;;;;;;;6.43;4.32;;;15.50;99.90;;;;;;5046853;28;20489;-75
2023/09/06 03:05:41;;;;;;;9.40;4.40;;;15.50;99.90;;;;;;5033845;28;20050;-75
2023/09/06 03:08:07;;;;;;;7.18;4.88;;;15.40;99.90;;;;;;5024893;28;20577;-75
2023/09/06 03:10:34;;;;;;;8.32;4.15;;;15.30;99.90;;;;;;5030012;28;20022;-74
2023/09/06 03:13:00;;;;;;;9.02;4.93;;;15.30;99.90;;;;;;5031024;28;20104;-75
2023/09/06 03:15:28;;;;;;;8.90;4.50;;;15.30;99.90;;;;;;5027820;28;21462;-74
2023/09/06 03:18:01;;;;;;;8.80;4.30;;;15.30;99.90;;;;;;5026552;28;20439;-75
2023/09/06 03:20:42;;;;;;;6.88;4.78;;;15.20;99.90;;;;;;5028785;28;20018;-75
2023/09/06 03:23:19;;;;;;;7.80;5.05;;;15.20;99.90;;;;;;5030428;28;20026;-76
2023/09/06 03:25:45;;;;;;;7.15;4.35;;;15.20;99.90;;;;;;5030263;28;20025;-74
2023/09/06 03:28:11;;;;;;;8.30;4.78;;;15.10;99.90;;;;;;5027552;28;20029;-75
2023/09/06 03:30:38;;;;;;;9.50;5.00;;;15.20;99.90;;;;;;5029388;28;20033;-74
2023/09/06 03:33:08;;;;;;;8.18;4.90;;;15.20;99.90;;;;;;5032688;28;20052;-74
2023/09/06 03:35:34;;;;;;;6.22;4.55;;;15.10;99.90;;;;;;5028142;28;20493;-75
2023/09/06 03:38:00;;;;;;;10.40;4.85;;;15.10;99.90;;;;;;5030411;28;20033;-75
2023/09/06 03:40:34;;;;;;;7.57;3.97;;;15.10;99.90;;;;;;5029887;28;20606;-75
2023/09/06 03:43:14;;;;;;;7.20;4.63;;;15.00;99.90;;;;;;5026986;28;20045;-75
2023/09/06 03:45:51;;;;;;;8.40;4.65;;;15.00;99.90;;;;;;5032412;28;20029;-75
2023/09/06 03:48:19;;;;;;;9.98;5.22;;;15.00;99.90;;;;;;5033594;28;20037;-75
2023/09/06 03:50:46;;;;;;;10.30;5.40;;;14.90;99.90;;;;;;5047593;28;20033;-75
2023/09/06 03:53:13;;;;;;;7.00;5.00;;;14.90;99.90;;;;;;5029112;28;20037;-75
2023/09/06 03:55:41;;;;;;;9.23;4.90;;;14.90;99.90;;;;;;5041040;28;20029;-76
2023/09/06 03:58:07;;;;;;;7.85;4.68;;;14.80;99.90;;;;;;5029571;28;20039;-76
2023/09/06 04:00:39;;;;;;;9.07;4.57;;;14.80;99.90;;;;;;5031815;28;20120;-75
2023/09/06 04:03:07;;;;;;;7.47;4.72;;;14.80;99.90;;;;;;5027395;28;20646;-74
2023/09/06 04:05:34;;;;;;;9.60;4.70;;;14.80;99.90;;;;;;5029489;28;20028;-75
2023/09/06 04:08:04;;;;;;;6.85;4.35;;;14.80;99.90;;;;;;5028540;28;20040;-76
2023/09/06 04:10:38;;;;;;;9.20;4.32;;;14.80;99.90;;;;;;5031458;28;20638;-76
2023/09/06 04:13:08;;;;;;;;;;;14.80;99.90;;;;;;5028064;28;20049;-76
2023/09/06 04:15:34;;;;;;;9.07;4.53;;;14.80;99.90;;;;;;5036495;28;19921;-76
2023/09/06 04:18:02;;;;;;;7.75;4.40;;;14.70;99.90;;;;;;5026378;28;20115;-76
2023/09/06 04:20:32;;;;;;;9.05;5.30;;;14.70;99.90;;;;;;5033764;28;20670;-75
2023/09/06 04:23:05;;;;;;;7.10;4.63;;;14.70;99.90;;;;;;5044340;28;20496;-76
2023/09/06 04:25:33;;;;;;;8.60;4.68;;;14.70;99.90;;;;;;5029218;28;20025;-74
2023/09/06 04:28:07;;;;;;;8.57;5.35;;;14.60;99.90;;;;;;5030077;28;20148;-74
2023/09/06 04:30:35;;;;;;;9.20;4.82;;;14.60;99.90;;;;;;5029550;28;20031;-77
2023/09/06 04:33:03;;;;;;;9.52;4.68;;;14.60;99.90;;;;;;5029242;28;20065;-75
2023/09/06 04:35:38;;;;;;;9.52;4.57;;;14.50;99.90;;;;;;5028113;28;20109;-75
2023/09/06 04:38:04;;;;;;;9.27;4.68;;;14.50;99.90;;;;;;5034841;28;20018;-75
2023/09/06 04:40:30;;;;;;;9.27;5.20;;;14.50;99.90;;;;;;5029599;28;20056;-75
2023/09/06 04:42:56;;;;;;;8.20;5.28;;;14.40;99.90;;;;;;5027033;28;20064;-75
2023/09/06 04:45:22;;;;;;;8.95;5.05;;;14.40;99.90;;;;;;5026850;28;20030;-75
2023/09/06 04:47:48;;;;;;;8.43;5.05;;;14.40;99.90;;;;;;5028648;28;20489;-75
2023/09/06 04:50:13;;;;;;;8.07;5.50;;;14.30;99.90;;;;;;5031898;28;20100;-76
2023/09/06 04:52:52;;;;;;;10.70;5.28;;;14.30;99.90;;;;;;5026849;28;20502;-77
2023/09/06 04:55:19;;;;;;;7.55;4.90;;;14.30;99.90;;;;;;5039603;28;20366;-77
2023/09/06 04:57:47;;;;;;;8.77;5.40;;;14.20;99.90;;;;;;5035272;28;20014;-77
2023/09/06 05:00:24;;;;;;;9.00;5.93;;;14.20;99.90;;;;;;5035459;28;20376;-77
2023/09/06 05:02:52;;;;;;;7.80;5.60;;;14.20;99.90;;;;;;5034387;28;20076;-78
2023/09/06 05:05:18;;;;;;;7.78;5.38;;;14.20;99.90;;;;;;5040388;28;20044;-77
2023/09/06 05:07:46;;;;;;;10.35;5.80;;;14.10;99.90;;;;;;5032298;28;20412;-76
2023/09/06 05:10:12;;;;;;;8.27;4.63;;;14.10;99.90;;;;;;5031084;28;20114;-76
2023/09/06 05:12:38;;;;;;;10.13;4.65;;;14.10;99.90;;;;;;5031588;28;20049;-76
2023/09/06 05:15:05;;;;;;;9.18;5.25;;;14.10;99.90;;;;;;5032177;28;20516;-76
2023/09/06 05:17:32;;;;;;;9.18;5.68;;;14.10;99.90;;;;;;5032141;28;20018;-76
2023/09/06 05:20:32;;;;;;;11.57;6.28;;;14.10;99.90;;;;;;5029606;28;20057;-76
2023/09/06 05:23:06;;;;;;;11.63;5.68;;;14.20;99.90;;;;;;5032392;28;20504;-76
2023/09/06 05:25:33;;;;;;;9.77;5.70;;;14.20;99.90;;;;;;5033191;28;20040;-76
2023/09/06 05:28:04;;;;;;;10.32;5.80;;;14.20;99.90;;;;;;5038072;28;20534;-76
2023/09/06 05:30:31;;;;;;;13.60;5.22;;;14.30;99.90;;;;;;5031364;28;20121;-76
2023/09/06 05:32:57;;;;;;;11.07;5.43;;;14.30;99.90;;;;;;5031608;28;20049;-76
2023/09/06 05:35:24;;;;;;;16.23;6.35;;;14.30;99.90;;;;;;5027832;28;20053;-77
2023/09/06 05:37:50;;;;;;;10.90;6.25;;;14.40;99.90;;;;;;5049314;28;20021;-77
2023/09/06 05:40:22;;;;;;;13.05;6.18;;;14.50;99.90;;;;;;5029501;28;20550;-77
2023/09/06 05:42:48;;;;;;;14.80;5.75;;;14.50;99.90;;;;;;5024899;28;20116;-75
2023/09/06 05:45:13;;;;;;;11.85;5.93;;;14.60;99.90;;;;;;5034186;28;20025;-76
2023/09/06 05:47:39;;;;;;;14.85;5.85;;;14.70;99.90;;;;;;5049579;28;20022;-76
2023/09/06 05:50:06;;;;;;;12.00;5.88;;;14.70;99.90;;;;;;5032456;28;20029;-77
2023/09/06 05:52:32;;;;;;;9.10;5.97;;;14.80;99.90;;;;;;5031357;28;20028;-76
2023/09/06 05:54:58;;;;;;;9.85;6.35;;;14.80;99.90;;;;;;5028498;28;20116;-76
2023/09/06 05:57:24;;;;;;;16.15;6.20;;;15.00;99.90;;;;;;5028277;28;20053;-77
2023/09/06 05:59:50;;;;;;;8.88;5.60;;;15.00;99.90;;;;;;5024399;28;20022;-77
2023/09/06 06:02:15;;;;;;;10.35;6.07;;;15.10;99.90;;;;;;5025586;28;20476;-76
2023/09/06 06:04:44;;;;;;;14.57;6.00;;;15.20;99.90;;;;;;5030602;28;20680;-75
2023/09/06 06:07:11;;;;;;;11.07;6.22;;;15.30;99.90;;;;;;5028577;28;20034;-77
2023/09/06 06:09:37;;;;;;;11.20;5.85;;;15.30;99.90;;;;;;5046236;28;20395;-77
2023/09/06 06:12:03;;;;;;;11.60;5.68;;;15.40;99.90;;;;;;5027506;28;20069;-76
2023/09/06 06:14:30;;;;;;;12.30;6.32;;;15.50;99.90;;;;;;5049074;28;20082;-76
2023/09/06 06:16:57;;;;;;;11.93;6.43;;;15.50;99.90;;;;;;5026188;28;20144;-76
2023/09/06 06:19:23;;;;;;;10.40;6.13;;;15.50;99.90;;;;;;5027225;28;20017;-70
2023/09/06 06:21:49;;;;;;;10.90;6.30;;;15.50;99.90;;;;;;5033208;28;20028;-70
2023/09/06 06:24:14;;;;;;;11.43;6.47;;;15.60;99.90;;;;;;5019420;28;20038;-70
2023/09/06 06:26:40;;;;;;;16.08;7.38;;;15.60;99.90;;;;;;5024117;28;20030;-70
2023/09/06 06:29:06;;;;;;;10.95;7.40;;;15.70;99.90;;;;;;5027006;28;20062;-71
2023/09/06 06:31:31;;;;;;;20.80;6.20;;;15.80;99.90;;;;;;5012084;28;20439;-72
2023/09/06 06:33:59;;;;;;;11.68;7.03;;;15.80;99.90;;;;;;5013274;28;20026;-71
2023/09/06 06:36:25;;;;;;;13.23;6.70;;;15.90;99.90;;;;;;5032824;28;20475;-72
2023/09/06 06:38:51;;;;;;;15.43;6.75;;;15.90;99.90;;;;;;5024691;28;20034;-72
2023/09/06 06:41:20;;;;;;;17.38;7.45;;;15.90;99.90;;;;;;5032876;28;20029;-71
2023/09/06 06:43:49;;;;;;;11.40;6.38;;;16.00;99.90;;;;;;5033206;28;20021;-70
2023/09/06 06:46:32;;;;;;;16.05;6.60;;;15.90;99.90;;;;;;5031647;28;20030;-71
2023/09/06 06:48:59;;;;;;;14.20;6.45;;;16.00;99.90;;;;;;5032898;28;20033;-71
2023/09/06 06:51:34;;;;;;;9.88;6.40;;;16.10;99.90;;;;;;5030336;28;20036;-74
2023/09/06 06:54:03;;;;;;;10.68;6.18;;;16.10;99.90;;;;;;5047704;28;20116;-75
2023/09/06 06:56:29;;;;;;;12.30;6.70;;;16.20;99.90;;;;;;5027709;28;20108;-76
2023/09/06 06:58:54;;;;;;;9.95;6.00;;;16.30;99.90;;;;;;5031494;28;20108;-76
2023/09/06 07:01:24;;;;;;;12.23;6.18;;;16.40;99.90;;;;;;5030331;28;20018;-76
2023/09/06 07:03:50;;;;;;;14.15;6.53;;;16.40;99.90;;;;;;5031735;28;20415;-76
2023/09/06 07:06:16;;;;;;;13.82;6.15;;;16.40;99.90;;;;;;5034776;28;20057;-76
2023/09/06 07:08:42;;;;;;;10.20;6.10;;;16.50;99.90;;;;;;5032738;28;20678;-76
2023/09/06 07:11:07;;;;;;;12.05;6.22;;;16.60;99.90;;;;;;5032008;28;20030;-77
2023/09/06 07:13:34;;;;;;;11.73;6.18;;;16.60;99.90;;;;;;5029084;28;20045;-76
2023/09/06 07:16:00;;;;;;;15.27;6.75;;;16.70;99.90;;;;;;5033735;28;20025;-76
2023/09/06 07:18:26;;;;;;;12.23;6.43;;;16.70;99.90;;;;;;5029471;28;20564;-75
2023/09/06 07:20:51;;;;;;;11.93;7.07;;;16.70;99.90;;;;;;5045411;28;20025;-76
2023/09/06 07:23:17;;;;;;;15.07;7.25;;;16.70;99.90;;;;;;5029260;28;20030;-77
2023/09/06 07:25:47;;;;;;;15.32;8.07;;;16.70;99.90;;;;;;5042244;28;20040;-76
2023/09/06 07:28:15;;;;;;;10.05;6.80;;;16.80;99.90;;;;;;5024457;28;20022;-76
2023/09/06 07:30:44;;;;;;;13.45;5.97;;;16.90;99.90;;;;;;5026465;28;20044;-76
2023/09/06 07:33:10;;;;;;;9.73;6.72;;;17.00;99.90;;;;;;5023318;28;20037;-76
2023/09/06 07:35:36;;;;;;;10.90;7.03;;;17.00;99.90;;;;;;5028193;28;20033;-76
2023/09/06 07:38:01;;;;;;;9.82;6.85;;;17.00;99.90;;;;;;5030068;28;20018;-76
2023/09/06 07:40:27;;;;;;;16.92;7.40;;;17.10;99.90;;;;;;5034087;28;20072;-77
2023/09/06 07:42:53;;;;;;;9.85;6.57;;;17.20;99.90;;;;;;5045808;28;20078;-77
2023/09/06 07:45:18;;;;;;;11.68;6.70;;;17.30;99.90;;;;;;5030945;28;20026;-78
2023/09/06 07:47:44;;;;;;;11.45;6.80;;;17.40;99.90;;;;;;5032807;28;20055;-78
2023/09/06 07:50:10;;;;;;;12.57;6.82;;;17.40;99.90;;;;;;5027928;28;20021;-77
2023/09/06 07:52:39;;;;;;;10.15;6.78;;;17.50;99.90;;;;;;5025681;28;20025;-78
2023/09/06 07:55:05;;;;;;;8.50;6.45;;;17.60;99.90;;;;;;5032641;28;20373;-79
2023/09/06 07:57:31;;;;;;;11.85;7.15;;;17.70;99.90;;;;;;5028487;28;20361;-77
2023/09/06 07:59:57;;;;;;;18.77;7.03;;;17.70;99.90;;;;;;5029897;28;20115;-76
2023/09/06 08:02:22;;;;;;;14.65;6.28;;;17.80;99.90;;;;;;5027105;28;20022;-79
2023/09/06 08:04:50;;;;;;;9.77;6.43;;;17.90;99.90;;;;;;5027747;28;20320;-78
2023/09/06 08:07:16;;;;;;;9.40;5.82;;;18.00;99.90;;;;;;5030929;28;20035;-79
2023/09/06 08:09:42;;;;;;;9.93;6.18;;;18.00;99.90;;;;;;5031484;28;20029;-77
2023/09/06 08:12:08;;;;;;;12.13;7.05;;;18.10;99.90;;;;;;5031700;28;20034;-79
2023/09/06 08:14:34;;;;;;;11.75;6.13;;;18.20;99.90;;;;;;5031732;28;20029;-79
2023/09/06 08:16:59;;;;;;;12.10;5.80;;;18.20;99.90;;;;;;5036766;28;20029;-79
2023/09/06 08:19:25;;;;;;;11.05;6.20;;;18.30;99.90;;;;;;5032583;28;20388;-77
2023/09/06 08:21:51;;;;;;;16.60;7.00;;;18.40;99.90;;;;;;5030843;28;20028;-79
2023/09/06 08:24:18;;;;;;;10.30;5.25;;;18.50;99.90;;;;;;5039528;28;20032;-78
2023/09/06 08:26:45;;;;;;;14.80;6.15;;;18.50;99.90;;;;;;5033312;28;20036;-79
2023/09/06 08:29:11;;;;;;;12.05;5.93;;;18.70;99.90;;;;;;5030644;28;20033;-78
2023/09/06 08:31:36;;;;;;;8.55;5.50;;;18.70;99.90;;;;;;5050712;28;20051;-79
2023/09/06 08:34:02;;;;;;;8.50;5.57;;;18.80;99.90;;;;;;5045469;28;20034;-78
2023/09/06 08:36:28;;;;;;;8.05;6.18;;;18.90;99.90;;;;;;5035211;28;20088;-77
2023/09/06 08:38:53;;;;;;;10.38;5.38;;;19.00;99.90;;;;;;5034729;28;20033;-77
2023/09/06 08:41:20;;;;;;;12.07;5.13;;;19.10;99.90;;;;;;5034238;28;20025;-77
2023/09/06 08:43:46;;;;;;;10.23;5.20;;;19.20;99.90;;;;;;5032009;28;20057;-76
2023/09/06 08:46:28;;;;;;;7.93;5.10;;;19.30;99.90;;;;;;5032199;28;20120;-77
2023/09/06 08:48:55;;;;;;;11.75;5.20;;;19.40;99.90;;;;;;5028472;28;20061;-76
2023/09/06 08:51:22;;;;;;;10.35;5.30;;;19.50;99.90;;;;;;5028210;28;20373;-77
2023/09/06 08:53:48;;;;;;;10.18;5.55;;;19.60;99.90;;;;;;5033264;28;20471;-77
2023/09/06 08:56:17;;;;;;;6.50;5.18;;;19.70;99.90;;;;;;5032846;28;20021;-77
2023/09/06 08:58:43;;;;;;;9.07;5.45;;;19.70;99.90;;;;;;5033505;28;20439;-77
2023/09/06 09:01:09;;;;;;;8.35;5.10;;;19.90;99.90;;;;;;5029703;28;20018;-77
2023/09/06 09:03:35;;;;;;;7.43;5.32;;;19.90;99.90;;;;;;5032328;28;20022;-77
2023/09/06 09:06:06;;;;;;;10.57;5.93;;;19.90;99.90;;;;;;5031359;28;20512;-77
2023/09/06 09:08:33;;;;;;;11.32;5.53;;;20.00;99.90;;;;;;5033992;28;20381;-78
2023/09/06 09:11:08;;;;;;;6.90;4.80;;;20.10;99.90;;;;;;5035252;28;20080;-77
2023/09/06 09:13:34;;;;;;;12.68;5.75;;;20.10;99.90;;;;;;5032606;28;20549;-76
2023/09/06 09:16:05;;;;;;;7.60;5.00;;;20.20;99.90;;;;;;5032669;28;20033;-76
2023/09/06 09:18:30;;;;;;;8.30;5.60;;;20.30;99.90;;;;;;5032049;28;20107;-78
2023/09/06 09:20:57;;;;;;;8.85;4.88;;;20.30;99.90;;;;;;5030346;28;20021;-76
2023/09/06 09:23:23;;;;;;;8.43;5.47;;;20.40;99.90;;;;;;5031752;28;20021;-77
2023/09/06 09:25:49;;;;;;;10.73;5.30;;;20.40;99.90;;;;;;5028790;28;20036;-77
2023/09/06 09:28:16;;;;;;;7.20;4.57;;;20.40;99.90;;;;;;5028079;28;20033;-75
2023/09/06 09:30:42;;;;;;;11.65;5.50;;;20.50;99.90;;;;;;5028120;28;20031;-77
2023/09/06 09:33:07;;;;;;;6.20;4.40;;;20.50;99.90;;;;;;5033931;28;20097;-77
2023/09/06 09:35:34;;;;;;;8.27;4.65;;;20.60;99.90;;;;;;5030601;28;20026;-76
2023/09/06 09:38:01;;;;;;;9.48;4.60;;;20.60;99.90;;;;;;5029181;28;20018;-76
2023/09/06 09:40:32;;;;;;;9.43;5.13;;;20.70;99.90;;;;;;5024326;28;20083;-75
2023/09/06 09:43:02;;;;;;;6.38;4.15;;;20.70;99.90;;;;;;5031637;28;20036;-77
2023/09/06 09:45:29;;;;;;;6.07;4.35;;;20.80;99.90;;;;;;5029404;28;20025;-77
2023/09/06 09:47:56;;;;;;;9.93;4.68;;;20.90;99.90;;;;;;5028123;28;20392;-77
2023/09/06 09:50:22;;;;;;;7.38;4.32;;;21.00;99.90;;;;;;5031888;28;20097;-77
2023/09/06 09:52:48;;;;;;;8.32;4.97;;;21.00;99.90;;;;;;5032316;28;20026;-77
2023/09/06 09:55:15;;;;;;;7.40;4.47;;;21.00;99.90;;;;;;5033119;28;20029;-77
2023/09/06 09:57:46;;;;;;;11.27;5.55;;;21.00;99.90;;;;;;5033832;28;20040;-77
2023/09/06 10:00:13;;;;;;;6.47;4.40;;;21.10;99.90;;;;;;5027593;28;20029;-76
2023/09/06 10:02:42;;;;;;;5.78;3.97;;;21.20;99.90;;;;;;5035607;28;20075;-76
2023/09/06 10:05:12;;;;;;;10.13;4.88;;;21.30;99.90;;;;;;5029979;28;20025;-78
2023/09/06 10:07:41;;;;;;;9.40;4.60;;;21.30;99.70;;;;;;5025687;28;20039;-76
2023/09/06 10:10:12;;;;;;;9.35;5.05;;;21.40;99.80;;;;;;5031890;28;20037;-76
2023/09/06 10:12:45;;;;;;;7.60;4.68;;;21.50;99.80;;;;;;5036894;28;20038;-77
2023/09/06 10:15:14;;;;;;;8.80;4.28;;;21.60;99.70;;;;;;5032070;28;20034;-77
2023/09/06 10:17:41;;;;;;;5.85;4.28;;;21.70;99.90;;;;;;5029894;28;20021;-75
2023/09/06 10:20:12;;;;;;;6.60;4.78;;;21.80;99.60;;;;;;5028164;28;20029;-76
2023/09/06 10:22:44;;;;;;;10.93;4.95;;;21.80;99.40;;;;;;5027422;28;20030;-76
2023/09/06 10:25:10;;;;;;;7.22;4.40;;;21.90;99.30;;;;;;5028116;28;20017;-76
2023/09/06 10:27:55;;;;;;;9.10;5.07;;;21.90;99.20;;;;;;5030507;28;20058;-76
2023/09/06 10:30:44;;;;;;;9.48;4.93;;;22.00;99.30;;;;;;5027962;28;20025;-76
2023/09/06 10:33:42;;;;;;;9.88;5.57;;;22.10;99.30;;;;;;5028073;28;20036;-76
2023/09/06 10:36:08;;;;;;;14.55;6.72;;;22.10;99.00;;;;;;5015678;28;20362;-77
2023/09/06 10:38:58;;;;;;;11.07;5.35;;;22.20;98.80;;;;;;5026789;28;20026;-76
2023/09/06 10:41:27;;;;;;;11.25;4.88;;;22.20;98.90;;;;;;5026285;28;20040;-76
2023/09/06 10:43:58;;;;;;;9.20;5.28;;;22.30;98.80;;;;;;5023260;28;20021;-76
2023/09/06 10:46:32;;;;;;;8.70;5.72;;;22.30;98.50;;;;;;5033983;28;20083;-76
2023/09/06 10:49:19;;;;;;;7.75;4.78;;;22.40;98.20;;;;;;5035468;28;20455;-78
2023/09/06 10:52:14;;;;;;;7.53;4.38;;;22.40;98.10;;;;;;5027816;28;20486;-77
2023/09/06 10:54:44;;;;;;;8.25;4.72;;;22.40;98.20;;;;;;5016654;28;20430;-76
2023/09/06 10:57:12;;;;;;;7.47;5.00;;;22.50;98.20;;;;;;5026015;28;20158;-76
2023/09/06 10:59:54;;;;;;;5.57;4.60;;;22.50;98.20;;;;;;5030398;28;20492;-77
2023/09/06 11:02:23;;;;;;;7.05;4.18;;;22.60;98.10;;;;;;5029033;28;20112;-77
2023/09/06 11:05:02;;;;;;;7.80;4.80;;;22.70;98.20;;;;;;5028186;28;20061;-78
2023/09/06 11:07:44;;;;;;;7.10;4.38;;;22.70;98.10;;;;;;5030158;28;20021;-77
2023/09/06 11:10:12;;;;;;;6.97;4.25;;;22.80;97.90;;;;;;5032096;28;20025;-77
2023/09/06 11:12:38;;;;;;;6.38;4.60;;;22.90;97.80;;;;;;5028611;28;20116;-77
2023/09/06 11:15:09;;;;;;;5.45;4.43;;;22.90;97.80;;;;;;5025906;28;20454;-76
2023/09/06 11:17:35;;;;;;;5.65;4.28;;;23.00;97.90;;;;;;5025770;28;20021;-77
2023/09/06 11:20:12;;;;;;;7.05;4.88;;;23.00;97.90;;;;;;5029795;28;20021;-76
2023/09/06 11:22:46;;;;;;;7.05;4.38;;;23.10;97.70;;;;;;5024073;28;20041;-78
2023/09/06 11:25:21;;;;;;;6.60;4.22;;;23.10;97.70;;;;;;5026542;28;20029;-75
2023/09/06 11:27:48;;;;;;;6.28;4.45;;;23.20;97.70;;;;;;5032932;28;20424;-77
2023/09/06 11:30:21;;;;;;;6.07;4.00;;;23.30;97.50;;;;;;5030000;28;20010;-77
2023/09/06 11:32:48;;;;;;;6.43;4.18;;;23.30;97.50;;;;;;5030295;28;20059;-77
2023/09/06 11:35:15;;;;;;;6.57;4.40;;;23.30;97.80;;;;;;5026531;28;20025;-78
2023/09/06 11:37:50;;;;;;;8.90;4.40;;;23.40;97.70;;;;;;5023990;28;20728;-76
2023/09/06 11:40:20;;;;;;;8.52;4.68;;;23.50;97.60;;;;;;5028530;28;20033;-77
2023/09/06 11:42:59;;;;;;;9.02;4.55;;;23.50;97.50;;;;;;5029042;28;20049;-77
2023/09/06 11:45:26;;;;;;;14.13;5.30;;;23.60;97.70;;;;;;5028569;28;20026;-78
2023/09/06 11:47:53;;;;;;;6.45;4.50;;;23.60;97.60;;;;;;5025739;28;20021;-76
2023/09/06 11:50:23;;;;;;;9.70;4.43;;;23.70;97.50;;;;;;5021918;28;20096;-77
2023/09/06 11:52:50;;;;;;;7.05;4.35;;;23.70;97.50;;;;;;5034725;28;20138;-78
2023/09/06 11:55:17;;;;;;;9.98;4.70;;;23.80;97.40;;;;;;5027796;28;20402;-79
2023/09/06 11:57:50;;;;;;;7.72;4.90;;;23.80;97.30;;;;;;5035411;28;20081;-78
2023/09/06 12:00:27;;;;;;;8.20;5.22;;;23.90;97.60;;;;;;5034190;28;20084;-78
2023/09/06 12:03:07;;;;;;;10.30;5.50;;;23.90;97.40;;;;;;5031818;28;20049;-76
2023/09/06 12:05:44;;;;;;;10.18;4.75;;;24.00;97.40;;;;;;5029327;28;20445;-78
2023/09/06 12:08:15;;;;;;;6.53;4.53;;;24.10;97.50;;;;;;5034623;28;20025;-76
2023/09/06 12:10:49;;;;;;;7.18;5.18;;;24.10;97.40;;;;;;5032099;28;20018;-78
2023/09/06 12:13:15;;;;;;;8.85;4.97;;;24.10;97.30;;;;;;5040303;28;20406;-78
2023/09/06 12:15:43;;;;;;;9.27;4.15;;;24.20;97.30;;;;;;5032372;28;20022;-72
2023/09/06 12:18:09;;;;;;;6.88;4.07;;;24.30;97.30;;;;;;5029993;28;20104;-72
2023/09/06 12:20:34;;;;;;;7.45;4.70;;;24.30;97.10;;;;;;5024266;28;20108;-72
2023/09/06 12:23:00;;;;;;;7.03;4.47;;;24.40;97.10;;;;;;5025432;28;20396;-73
2023/09/06 12:25:31;;;;;;;6.43;3.83;;;24.40;97.00;;;;;;5028948;28;20582;-74
2023/09/06 12:27:57;;;;;;;8.65;4.90;;;24.50;96.90;;;;;;5019766;28;20016;-72
2023/09/06 12:30:23;;;;;;;6.63;4.18;;;24.60;96.90;;;;;;5035029;28;20025;-74
2023/09/06 12:32:49;;;;;;;5.75;4.30;;;24.60;96.80;;;;;;5029526;28;20067;-72
2023/09/06 12:35:15;;;;;;;8.75;4.47;;;24.60;96.80;;;;;;5028094;28;21071;-74
2023/09/06 12:37:40;;;;;;;5.60;4.30;;;24.70;96.60;;;;;;5043384;28;20053;-74
2023/09/06 12:40:13;;;;;;;8.02;4.65;;;24.70;96.60;;;;;;5025117;28;20030;-72
2023/09/06 12:42:45;;;;;;;8.98;5.07;;;24.80;96.50;;;;;;5023377;28;20048;-73
2023/09/06 12:45:33;;;;;;;8.13;4.67;;;24.80;96.50;;;;;;5027944;28;20113;-76
2023/09/06 12:47:59;;;;;;;5.97;4.28;;;25.00;96.30;;;;;;5032690;28;21070;-76
2023/09/06 12:50:26;;;;;;;11.18;4.32;;;25.00;96.00;;;;;;5032482;28;20100;-76
2023/09/06 12:52:53;;;;;;;6.10;4.38;;;25.00;96.00;;;;;;5029042;28;20040;-74